This is the latest recevied weather packets stored in our database for station/object N6RDS-8. If no packets are shown the sender has not sent any weather packets the latest 1 day(s).
| Time | Temp. | Humidity | Pressure | Rain* | Wind** | Luminosity | Snow |
|---|---|---|---|---|---|---|---|
| 1836274651 | 21.11° C | 78% | 1022.9 hPa | 0 mm | 1.34 m/s, 153° | 0 W/m² | - |
| 1836274504 | 20.56° C | 84% | 1022.9 hPa | 3.05 mm | 0.89 m/s, 139° | 0 W/m² | - |
| 1836274349 | 21.11° C | 77% | 1022.7 hPa | 0 mm | 0.45 m/s, 168° | 0 W/m² | - |
| 1836274202 | 21.11° C | 79% | 1023 hPa | 0 mm | 1.34 m/s, 130° | 0 W/m² | - |
| 1836274048 | 21.67° C | 76% | 1022.7 hPa | 0 mm | 0.89 m/s, 125° | 0 W/m² | - |
| 1778028649 | 21.11° C | 32% | 1014.2 hPa | 0 mm | 1.34 m/s, 247° | 109 W/m² | - |
| 1778028346 | 21.67° C | 31% | 1013.9 hPa | 0 mm | 2.68 m/s, 212° | 45 W/m² | - |
| 1778028047 | 22.22° C | 31% | 1014.1 hPa | 0 mm | 3.13 m/s, 214° | 153 W/m² | - |
| 1778027739 | 22.22° C | 31% | 1014 hPa | 0 mm | 1.79 m/s, 242° | 170 W/m² | - |
| 1778027436 | 22.22° C | 30% | 1014.2 hPa | 0 mm | 2.24 m/s, 161° | 173 W/m² | - |
| 1778027132 | 22.22° C | 30% | 1014.1 hPa | 0 mm | 2.24 m/s, 232° | 188 W/m² | - |
| 1778026828 | 22.22° C | 29% | 1013.8 hPa | 0 mm | 2.24 m/s, 215° | 88 W/m² | - |
| 1778026524 | 22.78° C | 29% | 1014 hPa | 0 mm | 2.68 m/s, 230° | 216 W/m² | - |
| 1778026221 | 22.78° C | 26% | 1013.8 hPa | 0 mm | 2.24 m/s, 178° | 232 W/m² | - |
| 1778025919 | 22.78° C | 30% | 1014 hPa | 0 mm | 1.34 m/s, 228° | 248 W/m² | - |
| 1778025616 | 22.78° C | 30% | 1014 hPa | 0 mm | 2.24 m/s, 274° | 262 W/m² | - |
| 1778025314 | 23.33° C | 29% | 1013.9 hPa | 0 mm | 2.68 m/s, 243° | 280 W/m² | - |
| 1778025010 | 23.33° C | 30% | 1013.8 hPa | 0 mm | 1.34 m/s, 163° | 296 W/m² | - |
| 1778024707 | 23.89° C | 29% | 1013.7 hPa | 0 mm | 2.24 m/s, 239° | 313 W/m² | - |
| 1778024404 | 23.89° C | 29% | 1013.7 hPa | 0 mm | 3.13 m/s, 261° | 336 W/m² | - |
| 1778024102 | 23.89° C | 30% | 1013.8 hPa | 0 mm | 3.13 m/s, 255° | 363 W/m² | - |
| 1778023799 | 23.89° C | 30% | 1013.6 hPa | 0 mm | 1.79 m/s, 280° | 389 W/m² | - |
| 1778023497 | 24.44° C | 30% | 1013.6 hPa | 0 mm | 4.02 m/s, 257° | 395 W/m² | - |
| 1778023194 | 24.44° C | 31% | 1013.7 hPa | 0 mm | 1.34 m/s, 172° | 455 W/m² | - |
| 1778022892 | 23.89° C | 31% | 1013.7 hPa | 0 mm | 1.79 m/s, 252° | 428 W/m² | - |
* Rain latest hour (hover to see other rain measurements)
** Current wind speed in m/s (hover to see current wind gust speed)